Time;durP1;ratioP1;P1;durP2;ratioP2;P2;SDS_P1;SDS_P2;PMS_P1;PMS_P2;Temp;Humidity;BMP_temperature;BMP_pressure;BME280_temperature;BME280_humidity;BME280_pressure;Samples;Min_cycle;Max_cycle;Signal;HPM_P1;HPM_P2
2022/10/16 00:01:24;;;;;;;13.18;7.62;;;;;;;5.51;62.35;101746.65;1739004;82;21030;-67
2022/10/16 00:03:53;;;;;;;11.60;6.97;;;;;;;5.51;62.40;101745.33;1747398;81;21015;-67
2022/10/16 00:06:22;;;;;;;11.22;7.25;;;;;;;5.50;62.45;101747.16;1746033;81;21038;-67
2022/10/16 00:08:49;;;;;;;13.13;7.70;;;;;;;5.49;62.50;101749.98;1739656;79;21426;-67
2022/10/16 00:11:23;;;;;;;11.93;7.62;;;;;;;5.49;62.51;101746.83;1739008;82;21027;-67
2022/10/16 00:13:57;;;;;;;10.72;7.12;;;;;;;5.49;62.53;101743.36;1739247;80;21065;-68
2022/10/16 00:16:25;;;;;;;12.93;7.40;;;;;;;5.48;62.60;101739.08;1739156;82;21086;-66
2022/10/16 00:18:54;;;;;;;11.80;7.42;;;;;;;5.48;62.58;101739.90;1736908;82;20956;-67
2022/10/16 00:21:24;;;;;;;13.62;7.33;;;;;;;5.49;62.66;101736.73;1747969;79;21104;-67
2022/10/16 00:24:00;;;;;;;11.30;6.85;;;;;;;5.49;62.70;101741.52;1739379;79;21197;-67
2022/10/16 00:26:29;;;;;;;10.82;6.95;;;;;;;5.51;62.67;101745.33;1769427;81;21517;-67
2022/10/16 00:28:57;;;;;;;11.22;7.00;;;;;;;5.48;62.63;101747.84;1767294;80;21099;-67
2022/10/16 00:31:25;;;;;;;12.23;7.05;;;;;;;5.46;62.58;101746.39;1745395;79;20994;-68
2022/10/16 00:33:52;;;;;;;12.30;6.92;;;;;;;5.44;62.54;101751.09;1736720;82;21012;-67
2022/10/16 00:36:22;;;;;;;9.33;6.37;;;;;;;5.39;62.51;101745.84;1741992;79;21165;-67
2022/10/16 00:38:54;;;;;;;11.57;6.87;;;;;;;5.37;62.47;101749.21;1739387;79;21033;-67
2022/10/16 00:41:23;;;;;;;10.82;6.80;;;;;;;5.35;62.44;101753.88;1748016;79;21097;-67
2022/10/16 00:43:58;;;;;;;10.95;7.10;;;;;;;5.31;62.39;101757.92;1738999;81;21589;-67
2022/10/16 00:46:41;;;;;;;11.55;7.17;;;;;;;5.25;62.36;101757.36;1742063;79;21054;-67
2022/10/16 00:49:13;;;;;;;10.15;6.72;;;;;;;5.20;62.38;101761.11;1738417;79;21136;-67
2022/10/16 00:51:50;;;;;;;9.00;6.28;;;;;;;5.14;62.47;101760.55;1731664;80;20998;-67
2022/10/16 00:54:27;;;;;;;11.45;7.20;;;;;;;5.10;62.53;101757.94;1738306;81;21064;-68
2022/10/16 00:56:55;;;;;;;12.18;7.55;;;;;;;5.05;62.59;101766.98;1740994;79;21006;-68
2022/10/16 00:59:28;;;;;;;11.15;6.80;;;;;;;5.01;62.65;101764.41;1739552;82;21196;-67
2022/10/16 01:01:54;;;;;;;11.57;7.10;;;;;;;4.97;62.70;101763.13;1739415;79;21406;-67
2022/10/16 01:04:22;;;;;;;11.35;6.85;;;;;;;4.94;62.77;101765.67;1739529;82;21160;-67
2022/10/16 01:07:16;;;;;;;11.25;7.12;;;;;;;4.92;62.83;101768.48;1742992;79;21455;-67
2022/10/16 01:10:31;;;;;;;9.88;6.58;;;;;;;4.89;62.83;101771.52;1739309;82;21532;-67
2022/10/16 01:13:05;;;;;;;12.82;6.30;;;;;;;4.86;62.88;101773.72;1712553;81;21089;-68
2022/10/16 01:16:21;;;;;;;10.30;6.72;;;;;;;4.82;62.90;101776.44;1742160;79;21075;-67
2022/10/16 01:18:59;;;;;;;9.78;6.50;;;;;;;4.78;62.93;101768.06;1741451;81;21006;-68
2022/10/16 01:21:35;;;;;;;14.07;7.97;;;;;;;4.74;62.91;101769.92;1741948;79;21010;-67
2022/10/16 01:24:11;;;;;;;10.25;7.30;;;;;;;4.72;62.92;101776.75;1736552;81;20960;-67
2022/10/16 01:27:11;;;;;;;10.15;6.80;;;;;;;4.68;62.95;101773.66;1741465;79;21073;-66
2022/10/16 01:30:03;;;;;;;9.88;7.22;;;;;;;4.66;62.98;101776.17;1739167;79;22022;-66
2022/10/16 01:32:47;;;;;;;12.18;7.50;;;;;;;4.64;62.97;101780.34;1739043;82;21037;-67
2022/10/16 01:35:25;;;;;;;11.00;7.10;;;;;;;4.60;62.97;101780.38;1736664;81;21015;-66
2022/10/16 01:38:00;;;;;;;12.68;7.58;;;;;;;4.59;62.99;101785.36;1738739;81;21630;-66
2022/10/16 01:40:27;;;;;;;11.70;7.30;;;;;;;4.57;63.07;101786.05;1736684;82;21090;-66
2022/10/16 01:43:01;;;;;;;13.95;7.83;;;;;;;4.55;63.10;101784.11;1713982;82;21214;-66
2022/10/16 01:45:28;;;;;;;10.98;7.50;;;;;;;4.54;63.07;101786.45;1736636;82;21078;-66
2022/10/16 01:47:55;;;;;;;15.23;8.63;;;;;;;4.50;63.10;101787.80;1714074;82;21505;-66
2022/10/16 01:50:22;;;;;;;12.85;8.85;;;;;;;4.50;63.17;101796.25;1739102;82;21010;-67
2022/10/16 01:52:51;;;;;;;11.43;8.45;;;;;;;4.49;63.26;101784.03;1738977;82;21148;-67
2022/10/16 01:55:23;;;;;;;11.22;7.72;;;;;;;4.50;63.38;101787.80;1736707;81;21226;-67
2022/10/16 01:57:50;;;;;;;;;;;;;;;4.51;63.43;101790.78;1741430;82;21053;-68
2022/10/16 02:00:17;;;;;;;12.55;8.20;;;;;;;4.52;63.49;101799.53;1739338;82;20522;-67
2022/10/16 02:02:47;;;;;;;11.83;7.70;;;;;;;4.51;63.54;101796.55;1738948;82;21046;-67
2022/10/16 02:05:29;;;;;;;11.08;7.60;;;;;;;4.50;63.56;101798.89;1721554;80;21046;-67
2022/10/16 02:07:56;;;;;;;12.45;8.23;;;;;;;4.48;63.52;101800.41;1769134;81;21166;-66
2022/10/16 02:10:24;;;;;;;11.95;7.90;;;;;;;4.46;63.52;101797.94;1767119;80;21047;-66
2022/10/16 02:13:16;;;;;;;12.68;8.20;;;;;;;4.45;63.60;101798.95;1769487;81;21470;-66
2022/10/16 02:15:42;;;;;;;12.85;8.18;;;;;;;4.46;63.64;101804.55;1767181;81;21011;-67
2022/10/16 02:18:11;;;;;;;10.85;8.38;;;;;;;4.44;63.67;101804.41;1769497;81;21077;-67
2022/10/16 02:20:52;;;;;;;12.70;8.13;;;;;;;4.41;63.61;101799.02;1767203;81;21332;-67
2022/10/16 02:23:50;;;;;;;11.25;8.00;;;;;;;4.40;63.60;101805.80;1769734;81;20979;-67
2022/10/16 02:26:22;;;;;;;13.22;8.08;;;;;;;4.37;63.56;101806.98;1766918;80;21041;-66
2022/10/16 02:28:54;;;;;;;12.18;7.85;;;;;;;4.34;63.55;101807.34;1768299;81;21050;-67
2022/10/16 02:31:27;;;;;;;12.90;8.35;;;;;;;4.31;63.54;101807.74;1767509;81;21082;-67
2022/10/16 02:33:57;;;;;;;10.95;7.47;;;;;;;4.31;63.51;101811.72;1769523;81;21085;-68
2022/10/16 02:36:24;;;;;;;11.28;7.53;;;;;;;4.29;63.56;101814.22;1767265;80;21010;-67
2022/10/16 02:38:52;;;;;;;11.55;7.58;;;;;;;4.26;63.59;101814.08;1769622;81;21006;-66
2022/10/16 02:41:21;;;;;;;13.50;8.58;;;;;;;4.25;63.67;101814.27;1766934;80;21101;-66
2022/10/16 02:43:48;;;;;;;12.13;8.15;;;;;;;4.23;63.73;101811.29;1743825;81;21037;-67
2022/10/16 02:46:17;;;;;;;12.73;8.70;;;;;;;4.24;63.80;101816.07;1766907;80;21244;-68
2022/10/16 02:48:44;;;;;;;14.38;8.10;;;;;;;4.22;63.87;101817.59;1743444;81;21006;-68
2022/10/16 02:51:56;;;;;;;13.40;8.75;;;;;;;4.23;63.94;101818.41;1766259;80;21047;-67
2022/10/16 02:54:23;;;;;;;12.43;8.33;;;;;;;4.22;63.95;101816.78;1761391;80;20971;-66
2022/10/16 02:56:50;;;;;;;14.07;9.50;;;;;;;4.22;63.97;101824.71;1762269;81;20991;-66
2022/10/16 02:59:17;;;;;;;11.73;8.45;;;;;;;4.21;64.03;101825.69;1767194;80;21156;-67
2022/10/16 03:01:43;;;;;;;11.50;8.23;;;;;;;4.20;64.12;101829.35;1769169;81;21028;-67
2022/10/16 03:04:10;;;;;;;13.13;7.83;;;;;;;4.20;64.13;101829.35;1765579;81;21132;-67
2022/10/16 03:06:37;;;;;;;14.50;8.23;;;;;;;4.19;64.11;101827.72;1746748;81;21045;-67
2022/10/16 03:09:03;;;;;;;16.20;9.90;;;;;;;4.18;64.08;101832.70;1738808;82;20971;-68
2022/10/16 03:11:31;;;;;;;14.23;9.10;;;;;;;4.16;64.07;101840.80;1723725;82;21250;-67
2022/10/16 03:13:58;;;;;;;12.53;8.05;;;;;;;4.15;64.09;101838.35;1723801;82;20967;-67
2022/10/16 03:16:25;;;;;;;12.40;7.95;;;;;;;4.13;64.12;101835.88;1723650;83;21019;-68
2022/10/16 03:18:51;;;;;;;13.72;9.10;;;;;;;4.13;64.13;101838.52;1723730;82;20991;-67
2022/10/16 03:21:18;;;;;;;12.40;8.90;;;;;;;4.12;64.13;101841.36;1723567;82;21015;-67
2022/10/16 03:23:44;;;;;;;13.88;8.83;;;;;;;4.12;64.16;101844.00;1723844;82;21219;-67
2022/10/16 03:26:11;;;;;;;13.62;8.70;;;;;;;4.11;64.20;101844.98;1723690;82;21110;-67
2022/10/16 03:28:38;;;;;;;15.13;8.70;;;;;;;4.11;64.23;101842.34;1725375;81;21074;-67
2022/10/16 03:31:05;;;;;;;13.80;8.60;;;;;;;4.08;64.26;101850.16;1723929;81;21054;-68
2022/10/16 03:33:31;;;;;;;11.63;8.10;;;;;;;4.09;64.27;101848.33;1724052;81;21086;-68
2022/10/16 03:35:58;;;;;;;14.00;8.85;;;;;;;4.08;64.24;101850.16;1753615;79;22018;-67
2022/10/16 03:38:25;;;;;;;12.73;8.45;;;;;;;4.07;64.25;101850.33;1757876;81;21086;-67
2022/10/16 03:40:52;;;;;;;15.58;8.80;;;;;;;4.07;64.32;101848.50;1769737;81;21486;-67
2022/10/16 03:43:19;;;;;;;17.87;8.80;;;;;;;4.08;64.37;101854.60;1756608;79;21522;-67
2022/10/16 03:45:45;;;;;;;11.60;8.33;;;;;;;4.07;64.40;101852.47;1738602;81;21114;-66
2022/10/16 03:48:12;;;;;;;14.40;9.28;;;;;;;4.08;64.43;101854.60;1736815;79;21320;-67
2022/10/16 03:50:38;;;;;;;12.78;9.05;;;;;;;4.07;64.45;101860.39;1737751;81;21066;-67
2022/10/16 03:53:06;;;;;;;13.70;8.80;;;;;;;4.07;64.52;101859.07;1739185;82;21065;-67
2022/10/16 03:55:32;;;;;;;15.25;9.30;;;;;;;4.08;64.60;101864.70;1739032;81;20979;-67
2022/10/16 03:57:58;;;;;;;12.95;9.05;;;;;;;4.09;64.64;101860.23;1741465;79;21094;-66
2022/10/16 04:00:25;;;;;;;14.30;8.93;;;;;;;4.09;64.68;101858.41;1736680;82;21270;-67
2022/10/16 04:02:52;;;;;;;14.20;8.98;;;;;;;4.11;64.68;101863.49;1741930;79;21078;-68
2022/10/16 04:05:18;;;;;;;13.40;8.80;;;;;;;4.11;64.64;101859.53;1736347;81;21533;-66
2022/10/16 04:07:45;;;;;;;13.15;8.65;;;;;;;4.10;64.58;101856.57;1741747;79;21446;-67
2022/10/16 04:10:12;;;;;;;13.32;8.63;;;;;;;4.08;64.52;101855.92;1741454;81;21442;-66
2022/10/16 04:12:38;;;;;;;14.13;8.53;;;;;;;4.06;64.43;101853.48;1739237;82;21332;-67
2022/10/16 04:15:09;;;;;;;11.93;8.43;;;;;;;4.03;64.40;101853.02;1741558;81;21533;-67
2022/10/16 04:17:37;;;;;;;13.98;8.80;;;;;;;4.00;64.36;101853.69;1738693;82;21041;-68
2022/10/16 04:20:07;;;;;;;13.10;8.90;;;;;;;3.97;64.30;101851.41;1738857;82;21084;-67
2022/10/16 04:22:33;;;;;;;14.53;8.73;;;;;;;3.95;64.25;101857.91;1738835;81;21500;-67
2022/10/16 04:25:01;;;;;;;15.45;9.15;;;;;;;3.93;64.27;101863.35;1741828;79;21104;-67
2022/10/16 04:27:28;;;;;;;16.77;9.38;;;;;;;3.91;64.32;101861.38;1738623;81;21070;-68
2022/10/16 04:29:55;;;;;;;13.80;9.43;;;;;;;3.91;64.42;101866.67;1738762;81;21022;-67
2022/10/16 04:32:22;;;;;;;15.35;8.78;;;;;;;3.91;64.51;101865.84;1755021;79;20962;-67
2022/10/16 04:34:49;;;;;;;14.05;10.13;;;;;;;3.92;64.63;101864.87;1767146;80;21042;-67
2022/10/16 04:37:16;;;;;;;14.43;9.63;;;;;;;3.94;64.73;101868.13;1758476;79;21229;-66
2022/10/16 04:39:42;;;;;;;13.32;9.28;;;;;;;3.95;64.84;101870.61;1735429;81;21110;-66
2022/10/16 04:42:09;;;;;;;14.50;9.68;;;;;;;4.00;64.96;101874.02;1740923;79;20923;-67
2022/10/16 04:44:36;;;;;;;14.15;9.70;;;;;;;4.04;65.05;101882.41;1739257;79;21003;-66
2022/10/16 04:47:04;;;;;;;13.13;9.33;;;;;;;4.07;65.14;101879.41;1741838;79;21414;-66
2022/10/16 04:49:33;;;;;;;12.70;9.68;;;;;;;4.09;65.18;101885.34;1738829;81;21266;-67
2022/10/16 04:52:00;;;;;;;14.15;9.50;;;;;;;4.13;65.19;101890.08;1739045;82;21026;-67
2022/10/16 04:54:27;;;;;;;14.60;9.73;;;;;;;4.18;65.21;101892.20;1709399;84;21149;-67
2022/10/16 04:56:53;;;;;;;14.20;10.20;;;;;;;4.25;65.28;101892.30;1744576;79;20935;-67
2022/10/16 04:59:20;;;;;;;14.53;9.55;;;;;;;4.30;65.39;101898.66;1736720;82;21577;-66
2022/10/16 05:01:46;;;;;;;14.15;9.30;;;;;;;4.37;65.55;101904.03;1739148;82;21978;-67
2022/10/16 05:04:14;;;;;;;12.80;9.55;;;;;;;4.45;65.70;101909.25;1761627;80;21004;-67
2022/10/16 05:06:41;;;;;;;15.25;10.08;;;;;;;4.54;65.84;101913.45;1763796;80;22084;-67
2022/10/16 05:09:08;;;;;;;15.20;10.28;;;;;;;4.64;65.88;101911.34;1764175;80;21146;-67
2022/10/16 05:11:36;;;;;;;13.62;10.23;;;;;;;4.72;65.92;101915.70;1766215;81;21082;-67
2022/10/16 05:14:03;;;;;;;15.28;10.98;;;;;;;4.81;65.94;101921.22;1746985;79;21068;-66
2022/10/16 05:16:30;;;;;;;14.00;9.45;;;;;;;4.89;65.97;101918.45;1739941;81;20995;-66
2022/10/16 05:18:57;;;;;;;16.02;10.53;;;;;;;4.97;66.03;101925.95;1738751;81;21117;-67
2022/10/16 05:21:25;;;;;;;15.58;10.60;;;;;;;5.06;66.08;101928.82;1738324;82;21474;-67
2022/10/16 05:23:55;;;;;;;15.05;10.58;;;;;;;5.15;66.15;101931.17;1736330;81;20979;-68
2022/10/16 05:26:21;;;;;;;15.38;10.72;;;;;;;5.24;66.24;101930.56;1739124;82;21265;-67
2022/10/16 05:28:49;;;;;;;17.82;10.25;;;;;;;5.37;66.32;101932.53;1736665;82;21086;-67
2022/10/16 05:31:17;;;;;;;15.60;11.25;;;;;;;5.49;66.37;101936.30;1745959;81;21057;-67
2022/10/16 05:33:47;;;;;;;14.53;10.53;;;;;;;5.59;66.41;101939.48;1766997;80;21046;-67
2022/10/16 05:36:14;;;;;;;16.30;11.05;;;;;;;5.71;66.41;101943.75;1769686;81;21105;-66
2022/10/16 05:38:42;;;;;;;15.28;10.70;;;;;;;5.83;66.38;101948.86;1767096;81;21438;-67
2022/10/16 05:41:10;;;;;;;15.45;10.50;;;;;;;5.94;66.36;101952.84;1769363;81;21047;-67
2022/10/16 05:43:37;;;;;;;12.53;10.00;;;;;;;6.03;66.34;101954.36;1767038;80;21023;-68
2022/10/16 05:46:05;;;;;;;13.05;10.05;;;;;;;6.14;66.30;101958.81;1769744;81;21538;-68
2022/10/16 05:48:32;;;;;;;18.48;10.88;;;;;;;6.24;66.26;101960.11;1767302;80;20951;-66
2022/10/16 05:51:10;;;;;;;16.05;10.68;;;;;;;6.35;66.27;101958.77;1769848;81;21868;-67
2022/10/16 05:53:36;;;;;;;15.03;10.25;;;;;;;6.47;66.23;101968.33;1738557;82;21005;-66
2022/10/16 05:56:03;;;;;;;14.65;10.55;;;;;;;6.58;66.14;101971.75;1769412;81;21014;-67
2022/10/16 05:58:35;;;;;;;15.68;10.32;;;;;;;6.67;66.04;101974.56;1767214;81;21011;-67
2022/10/16 06:01:06;;;;;;;15.20;11.20;;;;;;;6.78;65.96;101974.54;1769553;81;21011;-66
2022/10/16 06:03:35;;;;;;;15.05;10.35;;;;;;;6.90;65.87;101981.42;1767641;80;21396;-67
2022/10/16 06:06:13;;;;;;;14.87;10.30;;;;;;;7.01;65.78;101981.69;1769478;81;20955;-66
2022/10/16 06:08:41;;;;;;;13.53;10.10;;;;;;;7.13;65.65;101989.08;1767108;80;21047;-66
2022/10/16 06:11:12;;;;;;;14.07;10.40;;;;;;;7.23;65.53;101994.33;1769530;81;20994;-66
2022/10/16 06:13:40;;;;;;;14.85;10.05;;;;;;;7.35;65.40;101992.44;1767151;81;21564;-67
2022/10/16 06:16:09;;;;;;;13.62;10.10;;;;;;;7.46;65.27;101986.01;1769577;81;21103;-67
2022/10/16 06:18:37;;;;;;;12.53;9.68;;;;;;;7.59;65.14;101986.55;1767523;80;21396;-66
2022/10/16 06:21:13;;;;;;;14.78;9.98;;;;;;;7.70;65.04;101988.63;1769564;81;21094;-67
2022/10/16 06:23:41;;;;;;;12.98;9.60;;;;;;;7.83;64.94;101994.48;1766950;81;20983;-66
2022/10/16 06:26:12;;;;;;;12.25;9.53;;;;;;;7.96;64.84;101992.31;1769684;81;21066;-68
2022/10/16 06:28:38;;;;;;;14.40;9.68;;;;;;;8.09;64.71;101996.30;1767272;80;21163;-66
2022/10/16 06:31:06;;;;;;;13.22;8.68;;;;;;;8.21;64.54;102002.66;1769680;81;21097;-67
2022/10/16 06:33:33;;;;;;;12.95;8.63;;;;;;;8.31;64.40;102000.91;1766930;81;21023;-66
2022/10/16 06:36:07;;;;;;;12.28;9.18;;;;;;;8.42;64.27;102004.33;1769569;81;21533;-67
2022/10/16 06:38:34;;;;;;;14.13;9.53;;;;;;;8.53;64.12;102002.87;1767209;81;20967;-66
2022/10/16 06:41:03;;;;;;;10.43;8.10;;;;;;;8.66;64.06;102002.84;1769598;81;21147;-69
2022/10/16 06:43:34;;;;;;;11.00;7.80;;;;;;;8.81;63.92;102001.77;1766928;80;21063;-68
2022/10/16 06:46:02;;;;;;;11.83;8.00;;;;;;;8.91;63.73;101998.96;1769867;81;20959;-66
2022/10/16 06:48:29;;;;;;;12.63;7.60;;;;;;;9.05;63.54;102001.09;1767090;80;20991;-67
2022/10/16 06:51:00;;;;;;;12.18;7.97;;;;;;;9.18;63.28;102004.22;1769770;81;21097;-66
2022/10/16 06:53:29;;;;;;;10.48;7.92;;;;;;;9.30;62.98;102001.16;1767096;80;21241;-66
2022/10/16 06:55:56;;;;;;;10.88;7.95;;;;;;;9.44;62.69;102001.09;1769683;81;21129;-67
2022/10/16 06:58:25;;;;;;;9.75;6.95;;;;;;;9.54;62.40;101998.28;1767450;80;20963;-67
2022/10/16 07:00:56;;;;;;;13.38;7.90;;;;;;;9.65;62.16;101998.11;1769662;81;21002;-67
2022/10/16 07:03:23;;;;;;;10.82;7.70;;;;;;;9.78;61.91;101994.01;1767698;81;20975;-67
2022/10/16 07:05:51;;;;;;;11.83;7.58;;;;;;;9.92;61.76;102003.25;1769878;81;21541;-67
2022/10/16 07:08:18;;;;;;;9.00;6.10;;;;;;;10.06;61.48;101997.58;1767216;80;21000;-67
2022/10/16 07:10:44;;;;;;;10.65;7.58;;;;;;;10.22;61.11;102004.23;1769904;81;20956;-66
2022/10/16 07:13:14;;;;;;;10.70;7.30;;;;;;;10.34;60.81;102000.37;1767231;81;21097;-67
2022/10/16 07:15:42;;;;;;;11.75;8.18;;;;;;;10.49;60.39;102001.34;1769840;81;21549;-67
2022/10/16 07:18:09;;;;;;;12.85;7.53;;;;;;;10.62;59.96;102005.21;1767379;80;21144;-65
2022/10/16 07:20:37;;;;;;;13.68;8.00;;;;;;;10.75;59.50;102003.73;1769989;81;20991;-67
2022/10/16 07:23:05;;;;;;;11.80;7.50;;;;;;;10.89;59.15;102000.91;1767394;81;21066;-67
2022/10/16 07:25:32;;;;;;;10.82;7.22;;;;;;;11.07;58.72;102001.44;1769729;81;20994;-67
2022/10/16 07:28:00;;;;;;;11.70;7.22;;;;;;;11.22;58.27;102001.84;1767380;81;20979;-68
2022/10/16 07:30:27;;;;;;;12.65;7.47;;;;;;;11.33;58.05;102005.63;1769834;81;21245;-67
2022/10/16 07:32:53;;;;;;;11.55;7.28;;;;;;;11.48;57.42;102000.17;1767545;81;21126;-67
2022/10/16 07:35:21;;;;;;;12.33;8.00;;;;;;;11.60;56.91;101998.85;1769985;81;21126;-68
2022/10/16 07:37:48;;;;;;;13.22;8.03;;;;;;;11.71;56.52;102001.26;1767351;80;21036;-67
2022/10/16 07:40:15;;;;;;;12.25;7.83;;;;;;;11.85;56.24;102008.09;1769958;81;20946;-67
2022/10/16 07:42:43;;;;;;;13.38;7.35;;;;;;;12.01;56.05;102001.75;1767272;80;21147;-67
2022/10/16 07:45:10;;;;;;;12.53;6.83;;;;;;;12.15;55.75;102013.91;1770155;81;21510;-67
2022/10/16 07:47:37;;;;;;;10.23;6.60;;;;;;;12.26;55.29;102007.73;1767477;80;21565;-68
2022/10/16 07:50:04;;;;;;;11.63;6.83;;;;;;;12.34;54.91;102011.41;1770044;81;21458;-67
2022/10/16 07:52:31;;;;;;;11.80;6.92;;;;;;;12.43;54.52;102014.54;1767293;81;21030;-67
2022/10/16 07:54:58;;;;;;;11.60;6.80;;;;;;;12.50;53.92;102015.23;1769916;81;21196;-68
2022/10/16 07:57:25;;;;;;;8.83;6.25;;;;;;;12.58;53.79;102011.40;1767401;81;20999;-66
2022/10/16 07:59:51;;;;;;;8.58;6.08;;;;;;;12.71;53.40;102011.15;1769836;81;21042;-67
2022/10/16 08:02:18;;;;;;;10.80;6.50;;;;;;;12.84;52.97;102006.87;1767507;80;21011;-67
2022/10/16 08:04:47;;;;;;;8.55;5.83;;;;;;;12.95;52.16;102003.05;1770090;81;21507;-67
2022/10/16 08:07:15;;;;;;;10.70;6.45;;;;;;;13.05;51.56;102010.77;1767518;80;22250;-68
2022/10/16 08:09:42;;;;;;;7.07;4.70;;;;;;;13.15;51.31;102007.48;1769626;81;20999;-68
2022/10/16 08:12:10;;;;;;;8.48;5.55;;;;;;;13.25;50.83;102005.02;1767401;80;21698;-67
2022/10/16 08:14:38;;;;;;;9.77;5.67;;;;;;;13.32;50.72;101997.64;1770116;81;21081;-67
2022/10/16 08:17:06;;;;;;;7.70;5.57;;;;;;;13.46;50.69;101994.16;1767489;81;21209;-68
2022/10/16 08:19:34;;;;;;;7.60;5.17;;;;;;;13.59;50.35;101989.02;1769957;81;21587;-67
2022/10/16 08:22:02;;;;;;;7.17;4.77;;;;;;;13.71;49.98;101986.25;1767334;80;21766;-68
2022/10/16 08:24:31;;;;;;;8.53;5.23;;;;;;;13.81;49.63;101989.91;1769750;81;21767;-67
2022/10/16 08:26:57;;;;;;;8.20;4.67;;;;;;;13.93;49.23;101993.06;1765453;80;21392;-67
2022/10/16 08:29:24;;;;;;;6.73;4.03;;;;;;;14.01;49.01;101996.14;1710931;82;21338;-68
2022/10/16 08:31:52;;;;;;;7.47;4.53;;;;;;;14.11;48.66;101991.98;1734123;82;21734;-67
2022/10/16 08:34:19;;;;;;;5.97;4.00;;;;;;;14.21;48.15;101994.30;1734207;82;21183;-68
2022/10/16 08:36:45;;;;;;;6.97;4.40;;;;;;;14.30;47.80;101985.30;1735984;82;21208;-67
2022/10/16 08:39:12;;;;;;;6.47;3.97;;;;;;;14.37;47.59;101977.87;1734065;82;21115;-67
2022/10/16 08:41:49;;;;;;;5.27;3.80;;;;;;;14.47;47.21;101981.23;1734068;82;21364;-67
2022/10/16 08:44:48;;;;;;;6.53;3.97;;;;;;;14.54;46.85;101977.86;1733786;82;21326;-67
2022/10/16 08:47:29;;;;;;;5.07;3.20;;;;;;;14.64;46.33;101982.05;1734054;82;21193;-68
2022/10/16 08:50:12;;;;;;;6.87;3.57;;;;;;;14.73;46.05;101985.10;1732883;82;21325;-68
2022/10/16 08:52:41;;;;;;;5.40;3.30;;;;;;;14.77;45.57;101986.22;1734065;82;21094;-69
2022/10/16 08:55:32;;;;;;;6.33;3.50;;;;;;;14.83;44.76;101992.48;1734225;82;21304;-67
2022/10/16 08:58:00;;;;;;;6.40;3.50;;;;;;;14.87;44.39;101997.13;1751758;81;21742;-67
2022/10/16 09:00:26;;;;;;;5.70;3.50;;;;;;;14.95;44.15;101987.27;1769357;80;21288;-66
2022/10/16 09:03:31;;;;;;;5.90;3.07;;;;;;;15.02;43.49;101980.34;1769505;81;21889;-67
2022/10/16 09:06:12;;;;;;;5.53;3.10;;;;;;;15.07;43.25;101983.11;1769414;80;21717;-67
2022/10/16 09:08:59;;;;;;;6.03;3.20;;;;;;;15.17;42.61;101985.91;1769536;80;21255;-67
2022/10/16 09:11:47;;;;;;;4.60;2.97;;;;;;;15.25;42.78;101985.44;1763824;80;21280;-67
2022/10/16 09:14:51;;;;;;;5.17;3.00;;;;;;;15.35;42.21;101986.08;1769787;81;21272;-68
2022/10/16 09:17:44;;;;;;;4.80;2.50;;;;;;;15.42;42.09;101985.87;1767386;80;21396;-66
2022/10/16 09:20:19;;;;;;;5.23;2.83;;;;;;;15.44;41.02;101986.45;1709442;83;21366;-67
2022/10/16 09:22:46;;;;;;;4.40;2.70;;;;;;;15.44;40.99;101985.10;1696335;84;21331;-67
2022/10/16 09:25:20;;;;;;;5.13;2.80;;;;;;;15.51;41.13;101985.70;1718530;81;21260;-67
2022/10/16 09:27:49;;;;;;;5.10;2.27;;;;;;;15.60;40.91;101979.33;1726608;82;21679;-68
2022/10/16 09:30:18;;;;;;;5.17;2.33;;;;;;;15.67;40.42;101974.57;1722215;83;21127;-69
2022/10/16 09:32:47;;;;;;;4.90;2.27;;;;;;;15.73;39.83;101972.71;1722597;83;21382;-68
2022/10/16 09:35:20;;;;;;;4.80;2.40;;;;;;;15.76;39.19;101970.85;1722418;83;21384;-66
2022/10/16 09:37:51;;;;;;;4.03;2.20;;;;;;;15.77;39.34;101976.55;1722444;83;21232;-67
2022/10/16 09:40:38;;;;;;;4.23;2.30;;;;;;;15.79;39.23;101969.80;1722305;83;21273;-67
2022/10/16 09:43:38;;;;;;;3.67;2.10;;;;;;;15.83;38.83;101971.47;1722035;83;21356;-67
2022/10/16 09:46:09;;;;;;;3.97;2.00;;;;;;;15.87;38.46;101972.58;1728004;82;21766;-66
2022/10/16 09:48:49;;;;;;;3.80;2.33;;;;;;;15.91;37.37;101970.98;1735388;82;21296;-68
2022/10/16 09:51:28;;;;;;;4.97;2.27;;;;;;;15.77;37.06;101965.77;1735280;82;22057;-68
2022/10/16 09:54:01;;;;;;;5.77;2.60;;;;;;;15.71;37.31;101966.25;1739229;82;21310;-67
2022/10/16 09:56:33;;;;;;;8.50;2.27;;;;;;;15.79;37.96;101966.30;1736812;82;21281;-68
2022/10/16 09:59:06;;;;;;;5.60;2.30;;;;;;;15.79;37.96;101966.30;1739367;82;21549;-69
2022/10/16 10:01:46;;;;;;;3.67;2.40;;;;;;;15.87;37.71;101960.45;1736539;81;20947;-68
2022/10/16 10:04:13;;;;;;;3.70;2.50;;;;;;;15.94;37.71;101962.39;1739014;82;21832;-69
2022/10/16 10:06:54;;;;;;;4.70;2.10;;;;;;;16.01;37.85;101964.31;1737111;82;21390;-68
2022/10/16 10:09:30;;;;;;;3.80;2.30;;;;;;;16.09;37.96;101958.46;1739186;82;21429;-68
2022/10/16 10:11:59;;;;;;;4.10;2.40;;;;;;;16.11;37.25;101953.60;1736923;81;21300;-68
2022/10/16 10:14:37;;;;;;;4.63;2.50;;;;;;;16.16;37.48;101948.26;1739056;82;21414;-69
2022/10/16 10:17:13;;;;;;;4.17;2.73;;;;;;;16.20;37.47;101942.34;1736720;82;21302;-68
2022/10/16 10:19:54;;;;;;;4.27;2.57;;;;;;;16.21;37.13;101940.73;1739281;82;21456;-68
2022/10/16 10:22:45;;;;;;;4.87;2.37;;;;;;;16.25;37.38;101941.02;1736985;82;21439;-67
2022/10/16 10:25:20;;;;;;;4.83;3.00;;;;;;;16.26;37.23;101931.33;1750348;81;21416;-68
2022/10/16 10:28:07;;;;;;;5.53;3.30;;;;;;;16.16;37.72;101921.30;1767134;81;21491;-67
2022/10/16 10:31:07;;;;;;;5.43;3.23;;;;;;;16.21;37.54;101930.48;1769940;81;21473;-68
2022/10/16 10:33:52;;;;;;;5.80;3.30;;;;;;;16.21;37.54;101930.48;1767289;80;21485;-67
2022/10/16 10:36:37;;;;;;;4.90;3.03;;;;;;;16.15;37.96;101927.74;1768038;81;21614;-68
2022/10/16 10:39:22;;;;;;;5.53;3.10;;;;;;;16.17;38.26;101916.17;1767758;80;21865;-67
2022/10/16 10:42:10;;;;;;;5.43;3.40;;;;;;;16.22;38.26;101918.62;1769941;81;21941;-69
2022/10/16 10:45:27;;;;;;;6.40;3.67;;;;;;;16.23;38.42;101907.59;1767484;81;21531;-68
2022/10/16 10:48:08;;;;;;;5.30;2.90;;;;;;;16.28;38.69;101900.86;1770173;81;21591;-68
2022/10/16 10:51:02;;;;;;;5.97;3.50;;;;;;;16.28;38.69;101900.86;1767761;80;21603;-67
2022/10/16 10:54:10;;;;;;;5.27;3.37;;;;;;;16.39;38.71;101908.48;1770093;81;21477;-67
2022/10/16 10:57:22;;;;;;;5.83;3.53;;;;;;;16.43;38.50;101912.81;1651406;86;21522;-67
2022/10/16 11:00:17;;;;;;;8.30;4.20;;;;;;;16.43;38.50;101912.81;1691852;84;22084;-68
2022/10/16 11:03:03;;;;;;;7.67;4.57;;;;;;;16.44;38.66;101910.38;1767513;80;20943;-68
2022/10/16 11:05:41;;;;;;;6.83;4.20;;;;;;;16.43;38.91;101902.83;1755518;81;21520;-68
2022/10/16 11:08:19;;;;;;;6.47;3.77;;;;;;;16.43;38.91;101902.83;1767487;80;21706;-68
2022/10/16 11:10:52;;;;;;;5.40;3.50;;;;;;;16.37;38.89;101906.03;1770050;81;21625;-67
2022/10/16 11:13:39;;;;;;;7.63;4.33;;;;;;;16.37;38.89;101906.03;1767398;80;22276;-68
2022/10/16 11:16:21;;;;;;;7.50;4.13;;;;;;;16.40;39.09;101905.51;1747335;81;22150;-67
2022/10/16 11:19:21;;;;;;;5.40;3.87;;;;;;;16.39;39.01;101902.55;1765481;79;21702;-69
2022/10/16 11:22:05;;;;;;;5.83;3.30;;;;;;;16.41;39.10;101905.77;1732268;79;21627;-67
2022/10/16 11:24:43;;;;;;;7.07;3.90;;;;;;;16.47;39.56;101908.50;1718964;79;21683;-68
2022/10/16 11:27:13;;;;;;;6.43;4.60;;;;;;;16.52;39.28;101912.05;1713993;82;22875;-67
2022/10/16 11:29:58;;;;;;;8.60;4.45;;;;;;;16.52;39.28;101912.05;1739145;82;21751;-67
2022/10/16 11:32:33;;;;;;;5.80;3.80;;;;;;;16.63;38.86;101903.44;1739318;81;21022;-67
2022/10/16 11:35:14;;;;;;;5.40;3.10;;;;;;;16.63;38.86;101903.44;1689204;81;21783;-68
2022/10/16 11:37:43;;;;;;;4.80;3.13;;;;;;;16.62;38.13;101902.64;1722922;79;21711;-67
2022/10/16 11:40:37;;;;;;;5.23;3.50;;;;;;;16.52;37.46;101922.83;1743700;79;21717;-67
2022/10/16 11:43:15;;;;;;;6.15;3.37;;;;;;;16.37;38.11;101929.49;1768940;81;21592;-67
2022/10/16 11:45:52;;;;;;;5.57;3.20;;;;;;;16.14;37.88;101925.33;1762726;79;21189;-68
2022/10/16 11:48:39;;;;;;;5.60;3.27;;;;;;;16.14;37.88;101925.33;1741893;79;21521;-68
2022/10/16 11:51:38;;;;;;;4.80;3.03;;;;;;;16.07;38.06;101919.36;1723818;81;21536;-68